createdAt,value
2023-04-09T00:02:02.618Z,72.20
2023-04-09T00:04:31.569Z,72.28
2023-04-09T00:06:59.815Z,72.72
2023-04-09T00:09:27.798Z,72.54
2023-04-09T00:11:57.195Z,72.25
2023-04-09T00:14:25.758Z,72.52
2023-04-09T00:16:54.514Z,72.74
2023-04-09T00:19:23.976Z,72.10
2023-04-09T00:21:54.319Z,72.13
2023-04-09T00:24:22.319Z,72.14
2023-04-09T00:26:50.388Z,72.20
2023-04-09T00:29:18.919Z,72.22
2023-04-09T00:31:46.907Z,72.11
2023-04-09T00:34:14.816Z,72.18
2023-04-09T00:36:42.800Z,72.06
2023-04-09T00:39:11.044Z,71.89
2023-04-09T00:41:40.220Z,71.83
2023-04-09T00:44:08.276Z,71.61
2023-04-09T00:46:37.061Z,71.52
2023-04-09T00:49:05.711Z,71.47
2023-04-09T00:51:33.734Z,71.18
2023-04-09T00:54:01.865Z,71.08
2023-04-09T00:56:30.241Z,71.16
2023-04-09T00:59:02.637Z,71.14
2023-04-09T01:01:30.933Z,71.15
2023-04-09T01:03:59.998Z,71.35
2023-04-09T01:07:00.817Z,71.31
2023-04-09T01:09:33.302Z,71.31
2023-04-09T01:12:14.749Z,71.33
2023-04-09T01:15:10.274Z,71.21
2023-04-09T01:17:42.119Z,71.36
2023-04-09T01:20:14.583Z,71.31
2023-04-09T01:23:28.055Z,71.27
2023-04-09T01:26:02.541Z,71.51
2023-04-09T01:28:45.893Z,71.69
2023-04-09T01:31:15.369Z,71.65
2023-04-09T01:33:43.498Z,71.74
2023-04-09T01:36:12.344Z,71.95
2023-04-09T01:38:41.982Z,72.13
2023-04-09T01:41:15.485Z,72.06
2023-04-09T01:43:43.566Z,72.09
2023-04-09T01:46:12.377Z,72.01
2023-04-09T01:48:41.851Z,72.03
2023-04-09T01:51:14.228Z,71.93
2023-04-09T01:53:43.470Z,71.98
2023-04-09T01:56:14.544Z,71.91
2023-04-09T01:58:44.404Z,71.95
2023-04-09T02:01:14.612Z,71.95
2023-04-09T02:03:49.146Z,71.93
2023-04-09T02:06:19.599Z,71.76
2023-04-09T02:08:47.802Z,71.78
2023-04-09T02:11:16.100Z,71.93
2023-04-09T02:13:46.136Z,72.16
2023-04-09T02:16:14.139Z,72.28
2023-04-09T02:18:42.384Z,72.74
2023-04-09T02:21:13.941Z,72.37
2023-04-09T02:23:44.251Z,71.74
2023-04-09T02:26:12.636Z,71.80
2023-04-09T02:28:41.298Z,71.53
2023-04-09T02:31:09.618Z,71.82
2023-04-09T02:33:38.040Z,72.54
2023-04-09T02:36:06.224Z,72.93
2023-04-09T02:38:34.408Z,73.14
2023-04-09T02:41:03.226Z,74.08
2023-04-09T02:43:32.227Z,74.34
2023-04-09T02:46:00.504Z,74.44
2023-04-09T02:48:30.596Z,74.50
2023-04-09T02:50:58.818Z,74.21
2023-04-09T02:53:27.387Z,73.89
2023-04-09T02:55:56.146Z,73.94
2023-04-09T02:58:24.304Z,73.86
2023-04-09T03:00:58.348Z,73.86
2023-04-09T03:03:27.915Z,73.74
2023-04-09T03:05:56.641Z,73.62
2023-04-09T03:08:24.645Z,73.71
2023-04-09T03:10:53.089Z,74.42
2023-04-09T03:13:21.259Z,75.04
2023-04-09T03:15:56.819Z,75.50
2023-04-09T03:18:25.925Z,75.88
2023-04-09T03:20:53.915Z,75.25
2023-04-09T03:23:23.781Z,75.16
2023-04-09T03:26:01.258Z,75.23
2023-04-09T03:28:29.545Z,76.36
2023-04-09T03:30:57.989Z,76.67
2023-04-09T03:33:26.975Z,76.90
2023-04-09T03:35:56.268Z,76.89
2023-04-09T03:38:57.570Z,76.74
2023-04-09T03:41:34.565Z,76.25
2023-04-09T03:44:06.720Z,75.90
2023-04-09T03:46:41.260Z,75.50
2023-04-09T03:49:10.303Z,75.19
2023-04-09T03:51:42.279Z,74.96
2023-04-09T03:54:10.815Z,74.95
2023-04-09T03:56:39.694Z,74.89
2023-04-09T03:59:19.305Z,74.66
2023-04-09T04:01:48.559Z,74.57
2023-04-09T04:04:16.862Z,74.66
2023-04-09T04:06:53.308Z,74.72
2023-04-09T04:09:32.923Z,74.53
2023-04-09T04:12:08.324Z,74.30
2023-04-09T04:14:55.297Z,74.21
2023-04-09T04:17:37.347Z,74.27
2023-04-09T04:20:16.659Z,74.37
2023-04-09T04:23:15.688Z,74.20
2023-04-09T04:25:59.377Z,74.39
2023-04-09T04:28:31.410Z,74.76
2023-04-09T04:30:59.765Z,75.21
2023-04-09T04:33:32.117Z,75.36
2023-04-09T04:36:06.643Z,74.99
2023-04-09T04:38:53.545Z,74.44
2023-04-09T04:41:46.446Z,74.34
2023-04-09T04:44:17.931Z,74.74
2023-04-09T04:46:47.004Z,74.47
2023-04-09T04:49:15.464Z,74.41
2023-04-09T04:51:50.332Z,74.44
2023-04-09T04:54:18.314Z,74.01
2023-04-09T04:56:57.536Z,73.61
2023-04-09T05:00:00.701Z,72.55
2023-04-09T05:02:29.411Z,72.28
2023-04-09T05:05:16.778Z,71.75
2023-04-09T05:07:52.151Z,70.88
2023-04-09T05:10:21.969Z,70.65
2023-04-09T05:12:51.941Z,70.16
2023-04-09T05:15:29.015Z,70.31
2023-04-09T05:17:58.194Z,70.10
2023-04-09T05:20:27.631Z,69.25
2023-04-09T05:23:05.116Z,67.73
2023-04-09T05:25:39.855Z,67.40
2023-04-09T05:28:11.612Z,66.89
2023-04-09T05:30:39.913Z,66.30
2023-04-09T05:33:12.372Z,66.10
2023-04-09T05:35:41.416Z,66.25
2023-04-09T05:38:09.429Z,66.77
2023-04-09T05:40:39.126Z,66.64
2023-04-09T05:43:12.346Z,65.67
2023-04-09T05:45:43.014Z,64.02
2023-04-09T05:48:13.706Z,63.07
2023-04-09T05:50:53.965Z,62.39
2023-04-09T05:53:25.431Z,61.76
2023-04-09T05:55:54.638Z,62.03
2023-04-09T05:58:25.308Z,62.43
2023-04-09T06:00:58.027Z,62.88
2023-04-09T06:03:27.047Z,63.24
2023-04-09T06:05:55.298Z,63.68
2023-04-09T06:08:24.664Z,63.95
2023-04-09T06:10:52.663Z,64.08
2023-04-09T06:13:21.467Z,63.87
2023-04-09T06:15:52.543Z,63.92
2023-04-09T06:18:20.651Z,63.52
2023-04-09T06:20:48.634Z,62.85
2023-04-09T06:23:29.027Z,62.29
2023-04-09T06:25:57.464Z,62.44
2023-04-09T06:28:25.628Z,62.34
2023-04-09T06:30:55.542Z,62.03
2023-04-09T06:33:24.610Z,61.65
2023-04-09T06:35:52.595Z,61.04
2023-04-09T06:38:21.687Z,61.04
2023-04-09T06:40:49.601Z,61.10
2023-04-09T06:43:18.776Z,61.16
2023-04-09T06:45:52.286Z,60.91
2023-04-09T06:48:20.817Z,61.11
2023-04-09T06:50:54.172Z,61.88
2023-04-09T06:54:05.617Z,62.77
2023-04-09T06:56:38.365Z,61.19
2023-04-09T06:59:06.915Z,60.53
2023-04-09T07:01:35.950Z,60.28
2023-04-09T07:04:05.051Z,60.46
2023-04-09T07:06:33.407Z,59.60
2023-04-09T07:09:02.432Z,58.83
2023-04-09T07:11:32.896Z,58.72
2023-04-09T07:14:01.043Z,58.88
2023-04-09T07:16:29.589Z,58.78
2023-04-09T07:19:02.200Z,57.91
2023-04-09T07:21:30.483Z,57.32
2023-04-09T07:23:58.703Z,56.32
2023-04-09T07:26:27.144Z,56.54
2023-04-09T07:28:56.233Z,56.35
2023-04-09T07:31:24.216Z,55.70
2023-04-09T07:34:11.461Z,54.86
2023-04-09T07:36:41.139Z,54.82
2023-04-09T07:39:09.180Z,54.23
2023-04-09T07:41:37.624Z,53.99
2023-04-09T07:44:06.497Z,54.50
2023-04-09T07:46:36.674Z,54.89
2023-04-09T07:49:05.943Z,53.65
2023-04-09T07:51:34.230Z,53.49
2023-04-09T07:54:02.796Z,52.14
2023-04-09T07:56:32.325Z,52.34
2023-04-09T07:59:00.253Z,51.72
2023-04-09T08:01:28.329Z,51.22
2023-04-09T08:03:57.427Z,51.06
2023-04-09T08:06:27.107Z,51.05
2023-04-09T08:08:55.749Z,51.54
2023-04-09T08:11:26.031Z,52.60
2023-04-09T08:13:54.274Z,52.79
2023-04-09T08:16:24.419Z,52.35
2023-04-09T08:18:53.500Z,52.08
2023-04-09T08:21:21.615Z,51.34
2023-04-09T08:24:01.338Z,50.22
2023-04-09T08:26:31.136Z,49.56
2023-04-09T08:29:00.186Z,50.05
2023-04-09T08:31:28.183Z,49.79
2023-04-09T08:33:56.590Z,49.47
2023-04-09T08:36:24.614Z,49.08
2023-04-09T08:38:56.288Z,49.48
2023-04-09T08:41:25.614Z,50.11
2023-04-09T08:46:24.888Z,50.28
2023-04-09T08:48:55.095Z,50.04
2023-04-09T08:51:24.050Z,49.79
2023-04-09T08:53:56.626Z,49.33
2023-04-09T08:56:26.958Z,49.94
2023-04-09T08:58:55.571Z,50.33
2023-04-09T09:01:25.542Z,50.20
2023-04-09T09:04:00.368Z,50.99
2023-04-09T09:06:32.907Z,50.60
2023-04-09T09:09:17.444Z,49.58
2023-04-09T09:11:50.418Z,49.92
2023-04-09T09:14:20.899Z,50.20
2023-04-09T09:17:03.806Z,50.18
2023-04-09T09:19:35.762Z,49.82
2023-04-09T09:22:11.030Z,49.30
2023-04-09T09:24:52.375Z,48.78
2023-04-09T09:27:39.654Z,48.23
2023-04-09T09:30:08.845Z,48.17
2023-04-09T09:32:37.212Z,47.50
2023-04-09T09:35:08.728Z,46.86
2023-04-09T09:37:36.866Z,45.63
2023-04-09T09:40:05.536Z,44.92
2023-04-09T09:42:38.605Z,44.45
2023-04-09T09:45:17.566Z,43.60
2023-04-09T09:47:48.755Z,42.41
2023-04-09T09:50:17.766Z,42.11
2023-04-09T09:52:46.158Z,41.60
2023-04-09T09:55:17.500Z,40.94
2023-04-09T09:57:46.029Z,40.61
2023-04-09T10:00:17.730Z,40.56
2023-04-09T10:03:08.184Z,41.26
2023-04-09T10:05:39.205Z,42.63
2023-04-09T10:08:07.968Z,43.45
2023-04-09T10:10:36.660Z,43.40
2023-04-09T10:13:06.610Z,43.33
2023-04-09T10:15:36.616Z,42.65
2023-04-09T10:18:04.636Z,41.87
2023-04-09T10:20:57.595Z,41.70
2023-04-09T10:23:33.186Z,40.86
2023-04-09T10:26:03.247Z,40.77
2023-04-09T10:28:32.772Z,41.06
2023-04-09T10:31:07.667Z,42.01
2023-04-09T10:33:55.758Z,42.41
2023-04-09T10:36:30.295Z,43.02
2023-04-09T10:39:02.782Z,42.93
2023-04-09T10:41:33.433Z,43.18
2023-04-09T10:44:06.529Z,43.27
2023-04-09T10:46:46.228Z,43.79
2023-04-09T10:49:22.366Z,44.48
2023-04-09T10:52:04.939Z,44.44
2023-04-09T10:54:33.888Z,44.17
2023-04-09T10:57:11.037Z,44.79
2023-04-09T10:59:49.267Z,45.52
2023-04-09T11:02:38.900Z,45.27
2023-04-09T11:05:22.398Z,44.87
2023-04-09T11:07:55.098Z,44.48
2023-04-09T11:10:28.530Z,43.61
2023-04-09T11:13:00.373Z,42.57
2023-04-09T11:15:28.697Z,41.80
2023-04-09T11:17:57.880Z,40.97
2023-04-09T11:20:41.756Z,40.89
2023-04-09T11:23:13.416Z,40.82
2023-04-09T11:25:43.524Z,40.49
2023-04-09T11:28:31.419Z,40.24
2023-04-09T11:31:12.593Z,40.77
2023-04-09T11:33:48.197Z,41.50
2023-04-09T11:36:17.938Z,41.79
2023-04-09T11:38:51.690Z,41.57
2023-04-09T11:41:37.072Z,41.67
2023-04-09T11:44:09.221Z,42.43
2023-04-09T11:46:44.605Z,43.07
2023-04-09T11:49:17.622Z,43.04
2023-04-09T11:51:46.381Z,42.36
2023-04-09T11:54:20.878Z,42.34
2023-04-09T11:57:08.683Z,42.77
2023-04-09T11:59:38.794Z,42.59
2023-04-09T12:02:10.454Z,42.11
2023-04-09T12:04:51.753Z,41.37
2023-04-09T12:07:20.886Z,40.28
2023-04-09T12:09:57.955Z,39.12
2023-04-09T12:12:48.252Z,38.50
2023-04-09T12:15:24.685Z,38.44
2023-04-09T12:17:57.864Z,37.93
2023-04-09T12:20:33.104Z,37.84
2023-04-09T12:23:06.993Z,37.67
2023-04-09T12:25:41.254Z,37.19
2023-04-09T12:28:13.845Z,36.37
2023-04-09T12:30:45.428Z,36.39
2023-04-09T12:33:15.812Z,36.25
2023-04-09T12:35:48.198Z,36.04
2023-04-09T12:38:16.626Z,35.46
2023-04-09T12:40:45.616Z,35.82
2023-04-09T12:43:17.226Z,36.56
2023-04-09T12:45:45.476Z,37.51
2023-04-09T12:48:13.782Z,38.42
2023-04-09T12:50:45.473Z,39.16
2023-04-09T12:53:13.853Z,39.10
2023-04-09T12:55:42.968Z,38.21
2023-04-09T12:58:14.758Z,37.77
2023-04-09T13:00:43.295Z,37.49
2023-04-09T13:03:12.474Z,38.65
2023-04-09T13:05:43.576Z,40.12
2023-04-09T13:08:12.550Z,40.97
2023-04-09T13:10:42.185Z,41.47
2023-04-09T13:13:17.897Z,41.46
2023-04-09T13:15:49.719Z,42.21
2023-04-09T13:18:17.713Z,42.21
2023-04-09T13:20:46.661Z,42.52
2023-04-09T13:23:16.594Z,42.76
2023-04-09T13:25:44.646Z,43.06
2023-04-09T13:28:17.042Z,43.12
2023-04-09T13:30:48.438Z,43.16
2023-04-09T13:33:37.819Z,43.18
2023-04-09T13:36:08.397Z,43.11
2023-04-09T13:38:36.976Z,43.45
2023-04-09T13:41:06.167Z,43.45
2023-04-09T13:43:35.478Z,43.56
2023-04-09T13:46:05.439Z,43.50
2023-04-09T13:48:36.350Z,43.50
2023-04-09T13:51:05.830Z,43.60
2023-04-09T13:53:34.627Z,43.80
2023-04-09T13:56:02.623Z,45.01
2023-04-09T13:58:32.239Z,47.51
2023-04-09T14:01:04.548Z,49.55
2023-04-09T14:03:40.126Z,50.79
2023-04-09T14:06:14.708Z,52.45
2023-04-09T14:08:45.069Z,53.51
2023-04-09T14:11:15.792Z,54.80
2023-04-09T14:13:44.110Z,56.30
2023-04-09T14:16:15.888Z,58.65
2023-04-09T14:18:45.427Z,60.97
2023-04-09T14:21:13.416Z,62.87
2023-04-09T14:23:41.548Z,64.65
2023-04-09T14:26:12.123Z,66.28
2023-04-09T14:28:40.824Z,66.98
2023-04-09T14:31:09.123Z,67.19
2023-04-09T14:33:45.240Z,67.65
2023-04-09T14:36:17.568Z,67.94
2023-04-09T14:38:50.367Z,67.50
2023-04-09T14:41:20.053Z,67.69
2023-04-09T14:43:49.662Z,68.24
2023-04-09T14:46:24.935Z,68.24
2023-04-09T14:48:53.760Z,68.58
2023-04-09T14:51:31.672Z,69.03
2023-04-09T14:54:02.925Z,68.92
2023-04-09T14:56:47.755Z,68.95
2023-04-09T14:59:16.181Z,69.01
2023-04-09T15:01:51.300Z,69.09
2023-04-09T15:04:35.028Z,68.84
2023-04-09T15:07:12.203Z,68.92
2023-04-09T15:09:41.656Z,68.62
2023-04-09T15:12:09.651Z,68.12
2023-04-09T15:14:37.583Z,68.38
2023-04-09T15:17:05.874Z,68.38
2023-04-09T19:11:57.281Z,79.26
2023-04-09T19:14:26.339Z,77.52
2023-04-09T19:16:54.407Z,77.49
2023-04-09T19:19:23.651Z,77.34
2023-04-09T19:21:51.963Z,77.35
2023-04-09T19:24:19.922Z,77.79
2023-04-09T19:26:50.918Z,78.23
2023-04-09T19:29:19.705Z,78.23
2023-04-09T19:31:53.033Z,78.85
2023-04-09T19:34:22.331Z,78.72
2023-04-09T19:36:51.031Z,78.71
2023-04-09T19:39:19.667Z,78.51
2023-04-09T19:41:48.417Z,78.20
2023-04-09T19:44:24.172Z,77.99
2023-04-09T19:46:52.170Z,77.89
2023-04-09T19:49:20.674Z,77.85
2023-04-09T19:51:49.358Z,77.63
2023-04-09T19:54:20.034Z,78.35
2023-04-09T19:56:48.662Z,78.21
2023-04-09T19:59:16.795Z,77.96
2023-04-09T20:01:45.542Z,78.36
2023-04-09T20:04:13.871Z,78.31
2023-04-09T20:06:43.080Z,78.24
2023-04-09T20:09:12.492Z,78.29
2023-04-09T20:11:42.291Z,78.45
2023-04-09T20:14:12.002Z,78.89
2023-04-09T20:16:44.300Z,78.87
2023-04-09T20:19:12.402Z,78.52
2023-04-09T20:21:44.054Z,78.73
2023-04-09T20:24:12.016Z,79.10
2023-04-09T20:26:41.927Z,79.11
2023-04-09T20:29:11.992Z,79.08
2023-04-09T20:31:43.665Z,79.10
2023-04-09T20:34:13.414Z,79.85
2023-04-09T20:36:43.697Z,80.14
2023-04-09T20:39:21.910Z,80.54
2023-04-09T20:41:50.934Z,80.82
2023-04-09T20:44:20.021Z,81.63
2023-04-09T20:46:48.020Z,81.93
2023-04-09T20:49:16.440Z,81.93
2023-04-09T20:51:46.379Z,81.68
2023-04-09T20:54:14.556Z,81.71
2023-04-09T20:56:43.764Z,81.71
2023-04-09T20:59:11.988Z,81.95
2023-04-09T21:01:40.444Z,81.79
2023-04-09T21:04:08.973Z,81.78
2023-04-09T21:06:40.501Z,81.98
2023-04-09T21:09:08.665Z,81.75
2023-04-09T21:11:36.635Z,81.33
2023-04-09T21:14:10.986Z,81.14
2023-04-09T21:16:42.154Z,81.10
2023-04-09T21:19:10.577Z,80.90
2023-04-09T21:21:39.707Z,80.84
2023-04-09T21:24:07.955Z,80.89
2023-04-09T21:26:49.194Z,80.85
2023-04-09T21:29:21.195Z,80.33
2023-04-09T21:31:49.725Z,80.09
2023-04-09T21:34:18.030Z,79.98
2023-04-09T21:36:46.678Z,80.03
2023-04-09T21:39:14.779Z,79.90
2023-04-09T21:41:42.763Z,79.50
2023-04-09T21:44:10.925Z,79.05
2023-04-09T21:46:41.062Z,79.23
2023-04-09T21:49:09.701Z,79.22
2023-04-09T21:51:38.663Z,78.94
2023-04-09T21:54:09.681Z,78.72
2023-04-09T21:56:39.340Z,78.62
2023-04-09T21:59:11.436Z,78.73
2023-04-09T22:01:40.982Z,79.04
2023-04-09T22:04:09.409Z,79.13
2023-04-09T22:06:40.215Z,79.12
2023-04-09T22:09:08.519Z,79.29
2023-04-09T22:11:41.599Z,79.93
2023-04-09T22:14:15.693Z,80.09
2023-04-09T22:16:43.885Z,79.82
2023-04-09T22:33:11.256Z,77.46
2023-04-09T22:35:37.932Z,75.15
2023-04-09T22:38:05.075Z,75.56
2023-04-09T22:40:31.752Z,75.37
2023-04-09T22:42:58.528Z,75.42
2023-04-09T22:45:27.268Z,75.57
2023-04-09T22:47:56.351Z,76.21
2023-04-09T22:50:27.446Z,76.64
2023-04-09T22:52:54.600Z,77.21
2023-04-09T22:55:22.816Z,78.40
2023-04-09T22:57:50.645Z,79.46
2023-04-09T23:00:18.227Z,80.11
2023-04-09T23:02:46.791Z,80.16
2023-04-09T23:05:14.338Z,80.89
2023-04-09T23:07:42.165Z,81.20
2023-04-09T23:10:13.478Z,80.78
2023-04-09T23:12:59.815Z,81.27
2023-04-09T23:15:27.415Z,81.67
2023-04-09T23:17:54.814Z,81.37
2023-04-09T23:20:22.031Z,81.80
2023-04-09T23:22:48.920Z,81.88
2023-04-09T23:25:21.258Z,82.10
2023-04-09T23:27:48.289Z,81.85
2023-04-09T23:30:16.144Z,81.52
2023-04-09T23:32:44.260Z,81.15
2023-04-09T23:35:10.876Z,80.74
2023-04-09T23:37:38.540Z,80.51
2023-04-09T23:40:06.853Z,80.16
2023-04-09T23:42:33.773Z,80.04
2023-04-09T23:45:05.130Z,80.35
2023-04-09T23:47:33.857Z,81.02
2023-04-09T23:50:04.113Z,81.64
2023-04-09T23:52:33.160Z,81.63
2023-04-09T23:54:59.900Z,81.27
2023-04-09T23:57:33.057Z,81.18
